Time;durP1;ratioP1;P1;durP2;ratioP2;P2;SDS_P1;SDS_P2;PMS_P1;PMS_P2;Temp;Humidity;BMP_temperature;BMP_pressure;BME280_temperature;BME280_humidity;BME280_pressure;Samples;Min_cycle;Max_cycle;Signal;HPM_P1;HPM_P2
2022/05/19 00:01:38;;;;;;;12.65;11.35;;;;;;;;;;4984485;28;20047;-79
2022/05/19 00:04:04;;;;;;;13.88;12.30;;;;;;;;;;4975808;28;20046;-79
2022/05/19 00:06:30;;;;;;;13.10;11.75;;;;;;;;;;4983858;28;20050;-79
2022/05/19 00:08:56;;;;;;;13.63;11.80;;;;;;;;;;4981054;28;20054;-79
2022/05/19 00:11:26;;;;;;;11.63;10.48;;;;;;;;;;4975428;28;20051;-80
2022/05/19 00:13:52;;;;;;;12.25;11.00;;;;;;;;;;4980536;28;20721;-80
2022/05/19 00:16:18;;;;;;;12.52;11.43;;;;;;;;;;4991190;28;20137;-79
2022/05/19 00:18:45;;;;;;;13.55;12.15;;;;;;;;;;4982512;28;20070;-79
2022/05/19 00:21:11;;;;;;;13.95;11.95;;;;;;;;;;4972960;28;20434;-81
2022/05/19 00:23:37;;;;;;;14.10;12.70;;;;;;;;;;4983386;28;20056;-79
2022/05/19 00:26:03;;;;;;;13.65;12.25;;;;;;;;;;4992408;28;20143;-79
2022/05/19 00:28:29;;;;;;;15.60;12.50;;;;;;;;;;4986470;28;20101;-79
2022/05/19 00:30:55;;;;;;;13.95;12.65;;;;;;;;;;4992473;28;20085;-79
2022/05/19 00:33:21;;;;;;;13.15;11.93;;;;;;;;;;4979714;28;20183;-80
2022/05/19 00:35:47;;;;;;;14.60;12.52;;;;;;;;;;4978646;28;20486;-79
2022/05/19 00:38:16;;;;;;;14.00;12.38;;;;;;;;;;4988161;28;20057;-79
2022/05/19 00:40:50;;;;;;;15.07;12.52;;;;;;;;;;4980712;28;20046;-79
2022/05/19 00:43:26;;;;;;;13.50;12.18;;;;;;;;;;4976732;28;20442;-79
2022/05/19 00:45:55;;;;;;;13.63;12.25;;;;;;;;;;4983686;28;20055;-79
2022/05/19 00:48:26;;;;;;;13.18;11.57;;;;;;;;;;4977628;28;20046;-79
2022/05/19 00:51:01;;;;;;;14.43;12.77;;;;;;;;;;4982784;28;20109;-80
2022/05/19 00:53:35;;;;;;;13.75;12.05;;;;;;;;;;4989182;28;20053;-79
2022/05/19 00:56:08;;;;;;;15.95;12.55;;;;;;;;;;4986383;28;20047;-79
2022/05/19 00:58:40;;;;;;;13.52;12.23;;;;;;;;;;4988072;28;20343;-79
2022/05/19 01:01:06;;;;;;;14.52;12.75;;;;;;;;;;4987150;28;20049;-79
2022/05/19 01:03:36;;;;;;;13.52;12.27;;;;;;;;;;4997942;28;20072;-80
2022/05/19 01:06:04;;;;;;;13.63;12.32;;;;;;;;;;4989997;28;20074;-79
2022/05/19 01:08:34;;;;;;;13.35;11.98;;;;;;;;;;4981741;28;20902;-79
2022/05/19 01:11:01;;;;;;;13.57;12.27;;;;;;;;;;4980019;28;20399;-79
2022/05/19 01:13:30;;;;;;;13.80;12.45;;;;;;;;;;4981533;28;20394;-79
2022/05/19 01:15:56;;;;;;;13.63;12.13;;;;;;;;;;4984162;28;20057;-79
2022/05/19 01:18:24;;;;;;;13.30;12.10;;;;;;;;;;4984683;28;20061;-80
2022/05/19 01:20:50;;;;;;;13.32;11.93;;;;;;;;;;4982132;28;20088;-80
2022/05/19 01:23:31;;;;;;;14.75;12.45;;;;;;;;;;4981159;28;20116;-79
2022/05/19 01:26:16;;;;;;;13.88;12.48;;;;;;;;;;4986101;28;20062;-80
2022/05/19 01:28:44;;;;;;;16.73;13.57;;;;;;;;;;4981767;28;20046;-79
2022/05/19 01:31:28;;;;;;;12.73;11.48;;;;;;;;;;4975805;28;20046;-79
2022/05/19 01:33:54;;;;;;;13.38;12.07;;;;;;;;;;4989473;28;20441;-80
2022/05/19 01:36:20;;;;;;;13.13;11.85;;;;;;;;;;4985465;28;20042;-80
2022/05/19 01:38:48;;;;;;;13.90;12.40;;;;;;;;;;4976556;28;20051;-79
2022/05/19 01:41:19;;;;;;;15.65;12.98;;;;;;;;;;4972761;28;20054;-79
2022/05/19 01:43:51;;;;;;;13.98;12.57;;;;;;;;;;4975404;28;20051;-79
2022/05/19 01:46:33;;;;;;;14.73;12.55;;;;;;;;;;4974827;28;20049;-80
2022/05/19 01:48:59;;;;;;;14.77;12.38;;;;;;;;;;4976521;28;20043;-80
2022/05/19 01:51:35;;;;;;;14.02;12.75;;;;;;;;;;4973831;28;20096;-79
2022/05/19 01:54:07;;;;;;;14.48;13.07;;;;;;;;;;4976481;28;20164;-79
2022/05/19 01:56:40;;;;;;;14.63;13.13;;;;;;;;;;4996919;28;20081;-79
2022/05/19 01:59:10;;;;;;;15.15;13.27;;;;;;;;;;4987808;28;20047;-80
2022/05/19 02:01:39;;;;;;;14.18;12.75;;;;;;;;;;4981526;28;20042;-79
2022/05/19 02:04:08;;;;;;;14.68;13.18;;;;;;;;;;4986662;28;20035;-79
2022/05/19 02:06:38;;;;;;;15.35;13.32;;;;;;;;;;4987051;28;20045;-79
2022/05/19 02:09:16;;;;;;;14.85;13.30;;;;;;;;;;4983101;28;20129;-79
2022/05/19 02:11:51;;;;;;;14.48;12.98;;;;;;;;;;4973702;28;20996;-80
2022/05/19 02:14:19;;;;;;;14.60;13.20;;;;;;;;;;4977005;28;20050;-79
2022/05/19 02:16:46;;;;;;;16.52;14.85;;;;;;;;;;4999121;28;20056;-79
2022/05/19 02:19:13;;;;;;;15.98;14.35;;;;;;;;;;4978417;28;20050;-79
2022/05/19 02:21:40;;;;;;;16.38;13.82;;;;;;;;;;5003288;28;20100;-79
2022/05/19 02:24:08;;;;;;;15.95;14.40;;;;;;;;;;4979309;28;20530;-78
2022/05/19 02:26:35;;;;;;;16.25;14.63;;;;;;;;;;4972027;28;20057;-79
2022/05/19 02:29:12;;;;;;;17.50;15.05;;;;;;;;;;4976305;28;20047;-79
2022/05/19 02:31:41;;;;;;;16.15;14.50;;;;;;;;;;4987546;28;20096;-80
2022/05/19 02:34:07;;;;;;;16.67;15.07;;;;;;;;;;4983325;28;20042;-80
2022/05/19 02:36:33;;;;;;;15.68;14.07;;;;;;;;;;4977955;28;20050;-79
2022/05/19 02:38:59;;;;;;;16.70;14.98;;;;;;;;;;5003138;28;20485;-79
2022/05/19 02:41:28;;;;;;;17.27;15.55;;;;;;;;;;4973698;28;20112;-79
2022/05/19 02:43:54;;;;;;;17.42;15.77;;;;;;;;;;4989796;28;20129;-79
2022/05/19 02:46:20;;;;;;;17.35;15.55;;;;;;;;;;4990521;28;20133;-79
2022/05/19 02:48:46;;;;;;;17.17;15.45;;;;;;;;;;4995466;28;20540;-79
2022/05/19 02:51:12;;;;;;;17.02;15.32;;;;;;;;;;4986131;28;20049;-80
2022/05/19 02:53:38;;;;;;;17.70;15.93;;;;;;;;;;5004200;28;20120;-79
2022/05/19 02:56:04;;;;;;;17.52;15.75;;;;;;;;;;4983683;28;20086;-80
2022/05/19 02:58:30;;;;;;;16.50;14.90;;;;;;;;;;4974451;28;20077;-80
2022/05/19 03:00:56;;;;;;;18.60;16.90;;;;;;;;;;4991205;28;20049;-80
2022/05/19 03:03:22;;;;;;;19.60;15.52;;;;;;;;;;4980984;28;20049;-80
2022/05/19 03:05:48;;;;;;;17.23;15.52;;;;;;;;;;5003824;28;20049;-80
2022/05/19 03:08:15;;;;;;;18.35;16.52;;;;;;;;;;4988721;28;20139;-79
2022/05/19 03:10:42;;;;;;;17.40;15.70;;;;;;;;;;4986107;28;20086;-79
2022/05/19 03:13:14;;;;;;;18.60;16.65;;;;;;;;;;5000085;28;20185;-79
2022/05/19 03:15:40;;;;;;;17.95;16.13;;;;;;;;;;4991256;28;20054;-79
2022/05/19 03:18:06;;;;;;;18.33;16.38;;;;;;;;;;4984425;28;20042;-79
2022/05/19 03:20:35;;;;;;;17.65;15.95;;;;;;;;;;4989622;28;20507;-79
2022/05/19 03:23:01;;;;;;;17.92;16.20;;;;;;;;;;4985465;28;20510;-80
2022/05/19 03:25:28;;;;;;;17.55;15.93;;;;;;;;;;4989711;28;21111;-79
2022/05/19 03:27:57;;;;;;;18.40;16.50;;;;;;;;;;4982455;28;20070;-79
2022/05/19 03:30:23;;;;;;;18.10;16.13;;;;;;;;;;4973661;28;20514;-80
2022/05/19 03:32:52;;;;;;;18.83;16.85;;;;;;;;;;4982717;28;20095;-80
2022/05/19 03:35:18;;;;;;;17.90;16.33;;;;;;;;;;4984729;28;20129;-79
2022/05/19 03:37:45;;;;;;;18.10;16.40;;;;;;;;;;4981065;28;20057;-79
2022/05/19 03:40:12;;;;;;;19.00;17.10;;;;;;;;;;4971837;28;20043;-79
2022/05/19 03:42:38;;;;;;;19.02;17.15;;;;;;;;;;4995581;28;20039;-79
2022/05/19 03:45:10;;;;;;;19.35;17.50;;;;;;;;;;4991775;28;20180;-79
2022/05/19 03:47:36;;;;;;;19.13;17.23;;;;;;;;;;4983842;28;20038;-80
2022/05/19 03:50:05;;;;;;;19.23;16.63;;;;;;;;;;4994890;28;20057;-79
2022/05/19 03:52:31;;;;;;;18.10;16.30;;;;;;;;;;4981601;28;20263;-79
2022/05/19 03:54:57;;;;;;;18.75;16.92;;;;;;;;;;5001562;28;20045;-79
2022/05/19 03:57:23;;;;;;;18.33;16.65;;;;;;;;;;4974944;28;20376;-80
2022/05/19 03:59:50;;;;;;;17.88;16.17;;;;;;;;;;4979859;28;20034;-80
2022/05/19 04:02:16;;;;;;;18.23;16.45;;;;;;;;;;4984773;28;20046;-79
2022/05/19 04:04:42;;;;;;;17.17;15.52;;;;;;;;;;4991698;28;20042;-79
2022/05/19 04:07:08;;;;;;;18.33;16.63;;;;;;;;;;4981511;28;20101;-79
2022/05/19 04:09:34;;;;;;;18.55;16.67;;;;;;;;;;4982864;28;20059;-79
2022/05/19 04:12:00;;;;;;;18.48;16.73;;;;;;;;;;4975500;28;20376;-80
2022/05/19 04:14:27;;;;;;;18.17;16.45;;;;;;;;;;4975252;28;20152;-79
2022/05/19 04:16:53;;;;;;;17.35;15.75;;;;;;;;;;4982257;28;20046;-79
2022/05/19 04:19:19;;;;;;;20.05;18.05;;;;;;;;;;4981221;28;20422;-79
2022/05/19 04:21:46;;;;;;;18.60;16.85;;;;;;;;;;4982748;28;20077;-79
2022/05/19 04:24:12;;;;;;;18.77;16.83;;;;;;;;;;4981269;28;20463;-79
2022/05/19 04:26:38;;;;;;;19.90;18.00;;;;;;;;;;4970141;28;20460;-79
2022/05/19 04:29:05;;;;;;;21.02;18.98;;;;;;;;;;4976729;28;20066;-79
2022/05/19 04:31:31;;;;;;;21.13;19.15;;;;;;;;;;4980883;28;20054;-79
2022/05/19 04:33:57;;;;;;;20.60;18.60;;;;;;;;;;4976975;28;20139;-80
2022/05/19 04:36:23;;;;;;;24.10;21.55;;;;;;;;;;4983289;28;20507;-80
2022/05/19 04:38:49;;;;;;;32.33;24.00;;;;;;;;;;4998974;28;20057;-79
2022/05/19 04:41:18;;;;;;;26.33;23.52;;;;;;;;;;4977001;28;20045;-79
2022/05/19 04:43:44;;;;;;;34.38;24.60;;;;;;;;;;4989798;28;20058;-80
2022/05/19 04:46:10;;;;;;;27.88;24.10;;;;;;;;;;4975234;28;20038;-80
2022/05/19 04:48:36;;;;;;;31.52;26.63;;;;;;;;;;4980008;28;20065;-80
2022/05/19 04:51:02;;;;;;;39.95;32.72;;;;;;;;;;4992043;28;20042;-80
2022/05/19 04:53:29;;;;;;;43.72;37.28;;;;;;;;;;4975349;28;20106;-81
2022/05/19 04:55:55;;;;;;;45.10;37.95;;;;;;;;;;4994361;28;20046;-80
2022/05/19 04:58:21;;;;;;;39.65;34.85;;;;;;;;;;4977630;28;20055;-81
2022/05/19 05:00:51;;;;;;;39.00;34.85;;;;;;;;;;4976234;28;20061;-80
2022/05/19 05:03:18;;;;;;;38.58;34.58;;;;;;;;;;4981961;28;20045;-80
2022/05/19 05:05:44;;;;;;;37.63;33.72;;;;;;;;;;4996072;28;20482;-80
2022/05/19 05:08:13;;;;;;;35.42;31.98;;;;;;;;;;4978005;28;20047;-81
2022/05/19 05:10:39;;;;;;;36.33;32.50;;;;;;;;;;4983103;28;20417;-80
2022/05/19 05:13:09;;;;;;;35.20;31.42;;;;;;;;;;4986339;28;20058;-80
2022/05/19 05:15:35;;;;;;;38.50;34.63;;;;;;;;;;4978717;28;20043;-80
2022/05/19 05:18:01;;;;;;;38.97;34.88;;;;;;;;;;4991887;28;20045;-81
2022/05/19 05:20:27;;;;;;;39.78;36.03;;;;;;;;;;5006517;28;20046;-81
2022/05/19 05:22:53;;;;;;;39.20;35.17;;;;;;;;;;4983074;28;20096;-80
2022/05/19 05:25:19;;;;;;;40.78;36.58;;;;;;;;;;4983757;28;20055;-81
2022/05/19 05:27:45;;;;;;;40.90;36.17;;;;;;;;;;4977848;28;20064;-80
2022/05/19 05:30:15;;;;;;;39.03;35.25;;;;;;;;;;4980571;28;20054;-81
2022/05/19 05:32:41;;;;;;;33.63;30.33;;;;;;;;;;4994137;28;20741;-81
2022/05/19 05:35:08;;;;;;;27.63;22.90;;;;;;;;;;4987014;28;20042;-81
2022/05/19 05:37:34;;;;;;;28.42;20.33;;;;;;;;;;4979938;28;20042;-81
2022/05/19 05:40:01;;;;;;;29.75;20.13;;;;;;;;;;4975128;28;20050;-81
2022/05/19 05:42:27;;;;;;;30.10;20.23;;;;;;;;;;4999512;28;20050;-81
2022/05/19 05:44:53;;;;;;;39.35;21.08;;;;;;;;;;4994872;28;20146;-81
2022/05/19 05:47:19;;;;;;;30.08;19.05;;;;;;;;;;4989279;28;20429;-81
2022/05/19 05:49:45;;;;;;;30.83;21.52;;;;;;;;;;4984081;28;20046;-81
2022/05/19 05:52:11;;;;;;;29.45;21.83;;;;;;;;;;4990542;28;20066;-81
2022/05/19 05:54:37;;;;;;;26.73;20.52;;;;;;;;;;4988125;28;20109;-80
2022/05/19 05:57:06;;;;;;;29.80;21.70;;;;;;;;;;4975674;28;20067;-81
2022/05/19 05:59:32;;;;;;;29.42;20.60;;;;;;;;;;4971456;28;20058;-81
2022/05/19 06:01:58;;;;;;;39.13;21.13;;;;;;;;;;5012046;28;20461;-81
2022/05/19 06:04:24;;;;;;;34.42;19.33;;;;;;;;;;5013979;28;20038;-81
2022/05/19 06:06:51;;;;;;;30.17;19.65;;;;;;;;;;4978685;28;20050;-81
2022/05/19 06:09:17;;;;;;;35.90;21.15;;;;;;;;;;4981930;28;20458;-81
2022/05/19 06:11:44;;;;;;;31.33;20.30;;;;;;;;;;4995256;28;20061;-81
2022/05/19 06:14:10;;;;;;;30.75;19.92;;;;;;;;;;5001071;28;20100;-81
2022/05/19 06:16:36;;;;;;;31.10;21.30;;;;;;;;;;4988814;28;20039;-81
2022/05/19 06:19:02;;;;;;;31.95;20.73;;;;;;;;;;4986159;28;20129;-81
2022/05/19 06:21:28;;;;;;;31.67;21.08;;;;;;;;;;4987047;28;20493;-81
2022/05/19 06:23:54;;;;;;;32.50;21.35;;;;;;;;;;4983087;28;20047;-81
2022/05/19 06:26:20;;;;;;;31.95;21.25;;;;;;;;;;4993325;28;20167;-81
2022/05/19 06:28:47;;;;;;;34.47;20.38;;;;;;;;;;4988190;28;20134;-82
2022/05/19 06:31:13;;;;;;;27.88;20.48;;;;;;;;;;4984073;28;20093;-82
2022/05/19 06:33:39;;;;;;;35.40;22.10;;;;;;;;;;4979724;28;20046;-81
2022/05/19 06:36:09;;;;;;;34.75;22.13;;;;;;;;;;4989736;28;20442;-82
2022/05/19 06:38:38;;;;;;;30.95;20.83;;;;;;;;;;4982698;28;20033;-82
2022/05/19 06:43:49;;;;;;;28.52;18.15;;;;;;;;;;4987268;28;20055;-81
2022/05/19 06:46:15;;;;;;;27.98;17.95;;;;;;;;;;4983862;28;20134;-82
2022/05/19 06:48:42;;;;;;;31.63;18.08;;;;;;;;;;4978729;28;20077;-82
2022/05/19 06:51:07;;;;;;;27.17;16.23;;;;;;;;;;4988764;28;20045;-81
2022/05/19 06:53:34;;;;;;;29.33;14.98;;;;;;;;;;4986703;28;20049;-80
2022/05/19 06:56:00;;;;;;;29.30;15.40;;;;;;;;;;4995531;28;20581;-81
2022/05/19 06:58:26;;;;;;;24.23;14.45;;;;;;;;;;4993715;28;20509;-81
2022/05/19 07:00:53;;;;;;;24.90;15.43;;;;;;;;;;4991291;28;20058;-82
2022/05/19 07:03:19;;;;;;;22.48;14.80;;;;;;;;;;4997127;28;20046;-83
2022/05/19 07:05:48;;;;;;;25.73;15.43;;;;;;;;;;5004047;28;20128;-81
2022/05/19 07:08:14;;;;;;;25.50;15.23;;;;;;;;;;4998129;28;20080;-82
2022/05/19 07:10:40;;;;;;;24.75;16.60;;;;;;;;;;5006407;28;20102;-81
2022/05/19 07:13:06;;;;;;;21.42;14.23;;;;;;;;;;4997345;28;20453;-81
2022/05/19 07:15:34;;;;;;;24.48;15.85;;;;;;;;;;4987804;28;20050;-81
2022/05/19 07:18:00;;;;;;;25.52;14.48;;;;;;;;;;4986543;28;20121;-80
2022/05/19 07:20:44;;;;;;;19.08;14.35;;;;;;;;;;4991004;28;20051;-82
2022/05/19 07:23:11;;;;;;;20.48;14.73;;;;;;;;;;5004744;28;20046;-80
2022/05/19 07:25:37;;;;;;;19.15;14.05;;;;;;;;;;5002868;28;20054;-81
2022/05/19 07:28:06;;;;;;;21.77;15.05;;;;;;;;;;4986124;28;20145;-81
2022/05/19 07:30:32;;;;;;;23.13;15.00;;;;;;;;;;5003588;28;20062;-81
2022/05/19 07:32:59;;;;;;;21.90;14.98;;;;;;;;;;4993802;28;20553;-81
2022/05/19 07:35:25;;;;;;;20.13;14.57;;;;;;;;;;4985045;28;20137;-82
2022/05/19 07:37:51;;;;;;;20.15;14.25;;;;;;;;;;4988630;28;20553;-82
2022/05/19 07:40:18;;;;;;;18.90;13.50;;;;;;;;;;4979368;28;20039;-81
2022/05/19 07:42:44;;;;;;;23.08;14.15;;;;;;;;;;4990794;28;20042;-81
2022/05/19 07:45:11;;;;;;;21.55;13.38;;;;;;;;;;4992520;28;20516;-81
2022/05/19 07:47:37;;;;;;;24.58;13.93;;;;;;;;;;4989816;28;20046;-82
2022/05/19 07:50:05;;;;;;;19.35;13.15;;;;;;;;;;4992799;28;20104;-81
2022/05/19 07:52:31;;;;;;;19.15;13.07;;;;;;;;;;4989121;28;20576;-81
2022/05/19 07:54:57;;;;;;;18.23;13.15;;;;;;;;;;4996935;28;20050;-81
2022/05/19 07:57:24;;;;;;;20.73;13.27;;;;;;;;;;4991339;28;20140;-82
2022/05/19 07:59:50;;;;;;;20.50;13.32;;;;;;;;;;4989803;28;20508;-81
2022/05/19 08:02:20;;;;;;;20.30;13.90;;;;;;;;;;4991703;28;20482;-80
2022/05/19 08:04:46;;;;;;;20.65;13.73;;;;;;;;;;4983012;28;20097;-83
2022/05/19 08:07:12;;;;;;;18.38;13.45;;;;;;;;;;4990213;28;20052;-83
2022/05/19 08:17:58;;;;;;;23.38;14.35;;;;;;;;;;5011874;28;20074;-82
2022/05/19 08:20:24;;;;;;;20.90;13.57;;;;;;;;;;4996307;28;20047;-82
2022/05/19 08:22:50;;;;;;;15.20;12.40;;;;;;;;;;5004481;28;20465;-83
2022/05/19 08:25:16;;;;;;;19.67;13.38;;;;;;;;;;4995185;28;20057;-83
2022/05/19 08:27:45;;;;;;;20.38;14.57;;;;;;;;;;4994143;28;20054;-84
2022/05/19 08:30:11;;;;;;;18.55;14.05;;;;;;;;;;4998559;28;20168;-82
2022/05/19 08:32:38;;;;;;;19.77;14.43;;;;;;;;;;5001858;28;20041;-83
2022/05/19 08:35:05;;;;;;;18.85;14.45;;;;;;;;;;4998757;28;20145;-82
2022/05/19 08:37:31;;;;;;;18.27;13.27;;;;;;;;;;4995550;28;20112;-83
2022/05/19 08:39:58;;;;;;;21.20;13.48;;;;;;;;;;5001180;28;20089;-85
2022/05/19 08:42:24;;;;;;;18.30;13.52;;;;;;;;;;4999463;28;20085;-83
2022/05/19 08:44:52;;;;;;;18.17;12.88;;;;;;;;;;4994192;28;20064;-83
2022/05/19 08:47:24;;;;;;;15.40;11.25;;;;;;;;;;4999070;28;20133;-82
2022/05/19 08:49:53;;;;;;;17.27;12.83;;;;;;;;;;4997535;28;20129;-82
2022/05/19 08:52:23;;;;;;;18.42;12.38;;;;;;;;;;5006495;28;20053;-82
2022/05/19 08:54:50;;;;;;;18.45;13.57;;;;;;;;;;4995935;28;20081;-82
2022/05/19 08:57:31;;;;;;;21.98;13.70;;;;;;;;;;5004761;28;20605;-83
2022/05/19 09:00:10;;;;;;;21.48;14.68;;;;;;;;;;4998198;28;20046;-83
2022/05/19 09:02:39;;;;;;;18.48;14.43;;;;;;;;;;4998307;28;20045;-83
2022/05/19 09:05:08;;;;;;;18.83;14.13;;;;;;;;;;4985581;28;20042;-83
2022/05/19 09:07:58;;;;;;;15.38;13.18;;;;;;;;;;5006344;28;20502;-82
2022/05/19 09:10:37;;;;;;;17.73;14.57;;;;;;;;;;5002688;28;20057;-83
2022/05/19 09:13:22;;;;;;;20.05;14.93;;;;;;;;;;5008650;28;20074;-83
2022/05/19 09:15:48;;;;;;;21.23;16.38;;;;;;;;;;4993580;28;20498;-83
2022/05/19 09:18:16;;;;;;;19.05;17.00;;;;;;;;;;4995094;28;20046;-82
2022/05/19 09:20:47;;;;;;;20.25;18.05;;;;;;;;;;5002942;28;20413;-82
2022/05/19 09:23:13;;;;;;;21.45;19.50;;;;;;;;;;4996359;28;20115;-82
2022/05/19 09:25:44;;;;;;;23.20;20.40;;;;;;;;;;4985553;28;20050;-82
2022/05/19 09:28:12;;;;;;;22.02;19.85;;;;;;;;;;4992604;28;20057;-83
2022/05/19 09:30:41;;;;;;;24.02;21.48;;;;;;;;;;5006899;28;20059;-83
2022/05/19 09:33:17;;;;;;;25.15;22.65;;;;;;;;;;4995546;28;20072;-83
2022/05/19 09:35:45;;;;;;;27.27;23.80;;;;;;;;;;5004908;28;20414;-83
2022/05/19 09:38:24;;;;;;;27.45;22.95;;;;;;;;;;5001097;28;20046;-83
2022/05/19 09:40:54;;;;;;;25.60;23.08;;;;;;;;;;4996649;28;20128;-83
2022/05/19 09:43:21;;;;;;;27.48;24.63;;;;;;;;;;4990680;28;20042;-83
2022/05/19 09:45:53;;;;;;;27.83;25.00;;;;;;;;;;5008070;28;20049;-83
2022/05/19 09:48:27;;;;;;;27.47;24.87;;;;;;;;;;4998678;28;20043;-84
2022/05/19 09:50:59;;;;;;;27.65;24.90;;;;;;;;;;5004000;28;20049;-83
2022/05/19 09:53:26;;;;;;;27.77;25.27;;;;;;;;;;5000857;28;20101;-83
2022/05/19 09:55:56;;;;;;;29.02;26.33;;;;;;;;;;4999490;28;20411;-84
2022/05/19 09:58:25;;;;;;;28.50;26.08;;;;;;;;;;4992304;28;20057;-83
2022/05/19 10:00:53;;;;;;;30.30;27.65;;;;;;;;;;4998353;28;20053;-84
2022/05/19 10:03:29;;;;;;;32.63;29.63;;;;;;;;;;4997471;28;20069;-83
2022/05/19 10:05:57;;;;;;;32.45;29.63;;;;;;;;;;4989348;28;20052;-82
2022/05/19 10:08:27;;;;;;;32.60;29.52;;;;;;;;;;4998019;28;20085;-84
2022/05/19 10:11:11;;;;;;;30.52;27.92;;;;;;;;;;4985438;28;20051;-83
2022/05/19 10:13:39;;;;;;;30.20;27.50;;;;;;;;;;4999619;28;20042;-83
2022/05/19 10:16:07;;;;;;;30.27;27.45;;;;;;;;;;4993981;28;20046;-83
2022/05/19 10:18:34;;;;;;;26.67;24.25;;;;;;;;;;4999708;28;20177;-81
2022/05/19 10:21:27;;;;;;;26.30;23.95;;;;;;;;;;5000436;28;20038;-83
2022/05/19 10:24:05;;;;;;;25.30;23.10;;;;;;;;;;4969087;28;20094;-83
2022/05/19 10:26:36;;;;;;;25.27;22.77;;;;;;;;;;4994102;28;20128;-85
2022/05/19 10:32:01;;;;;;;21.88;19.75;;;;;;;;;;4988757;28;20062;-84
2022/05/19 10:34:43;;;;;;;22.63;20.73;;;;;;;;;;4994412;28;21022;-83
2022/05/19 10:37:28;;;;;;;22.05;20.15;;;;;;;;;;4995730;28;20060;-83
2022/05/19 10:39:57;;;;;;;22.13;20.17;;;;;;;;;;4990682;28;20047;-83
2022/05/19 10:42:43;;;;;;;23.92;21.83;;;;;;;;;;4996934;28;20474;-82
2022/05/19 10:45:17;;;;;;;22.85;20.92;;;;;;;;;;4982484;28;20061;-83
2022/05/19 10:48:04;;;;;;;21.05;19.15;;;;;;;;;;4996867;28;20058;-83
2022/05/19 10:50:31;;;;;;;20.58;18.77;;;;;;;;;;4990188;28;20058;-82
2022/05/19 10:52:58;;;;;;;19.00;17.33;;;;;;;;;;4989865;28;20371;-82
2022/05/19 10:55:33;;;;;;;14.85;13.45;;;;;;;;;;4990532;28;20084;-83
2022/05/19 10:58:02;;;;;;;14.95;13.63;;;;;;;;;;4992663;28;20143;-82
2022/05/19 11:00:31;;;;;;;14.32;13.02;;;;;;;;;;4992991;28;20127;-82
2022/05/19 11:03:17;;;;;;;13.93;12.73;;;;;;;;;;4997812;28;20042;-82
2022/05/19 11:06:02;;;;;;;14.63;13.30;;;;;;;;;;4981977;28;20476;-82
2022/05/19 11:08:40;;;;;;;15.15;13.82;;;;;;;;;;4976804;28;20663;-83
2022/05/19 11:11:29;;;;;;;15.48;14.07;;;;;;;;;;4989347;28;20132;-83
2022/05/19 11:13:56;;;;;;;15.40;14.10;;;;;;;;;;4973214;28;20108;-83
2022/05/19 11:16:33;;;;;;;14.93;13.45;;;;;;;;;;4987346;28;20056;-82
2022/05/19 11:19:03;;;;;;;14.50;13.27;;;;;;;;;;4996341;28;20034;-82
2022/05/19 11:21:48;;;;;;;15.05;13.85;;;;;;;;;;4991557;28;20046;-82
2022/05/19 11:24:22;;;;;;;15.32;13.85;;;;;;;;;;4989494;28;20054;-82
2022/05/19 11:26:57;;;;;;;15.00;13.50;;;;;;;;;;4984475;28;20086;-82
2022/05/19 11:29:26;;;;;;;12.65;11.35;;;;;;;;;;4992154;28;20054;-82
2022/05/19 11:32:04;;;;;;;13.15;11.93;;;;;;;;;;5002712;28;20053;-81
2022/05/19 11:34:33;;;;;;;14.52;13.00;;;;;;;;;;4998098;28;20062;-82
2022/05/19 11:37:03;;;;;;;15.00;13.10;;;;;;;;;;4990806;28;20038;-82
2022/05/19 11:39:35;;;;;;;12.95;11.65;;;;;;;;;;4995148;28;20057;-82
2022/05/19 11:42:07;;;;;;;11.90;10.82;;;;;;;;;;5002727;28;20136;-82
2022/05/19 11:44:38;;;;;;;12.40;11.27;;;;;;;;;;4998460;28;20045;-83
2022/05/19 11:47:10;;;;;;;12.45;11.25;;;;;;;;;;4999026;28;20478;-82
2022/05/19 11:55:33;;;;;;;24.98;13.15;;;;;;;;;;5030979;28;20054;-81
2022/05/19 11:58:01;;;;;;;20.73;14.32;;;;;;;;;;4998072;28;20048;-81
2022/05/19 12:00:36;;;;;;;17.55;10.93;;;;;;;;;;4999073;28;20069;-82
2022/05/19 12:03:21;;;;;;;16.35;9.43;;;;;;;;;;4998240;28;20042;-81
2022/05/19 12:06:06;;;;;;;19.55;8.68;;;;;;;;;;4985779;28;20449;-81
2022/05/19 12:08:37;;;;;;;19.42;9.63;;;;;;;;;;4997483;28;20053;-81
2022/05/19 12:11:09;;;;;;;15.90;9.07;;;;;;;;;;4996161;28;20046;-82
2022/05/19 12:13:35;;;;;;;15.73;9.02;;;;;;;;;;5001056;28;20490;-84
2022/05/19 12:16:10;;;;;;;20.23;10.98;;;;;;;;;;4999053;28;20120;-81
2022/05/19 12:18:38;;;;;;;18.67;10.98;;;;;;;;;;5001293;28;20039;-81
2022/05/19 12:21:04;;;;;;;19.55;12.05;;;;;;;;;;5002053;28;20054;-81
2022/05/19 12:23:32;;;;;;;19.45;12.70;;;;;;;;;;4998468;28;20050;-81
2022/05/19 12:25:59;;;;;;;21.77;13.30;;;;;;;;;;5004361;28;20057;-81
2022/05/19 12:28:28;;;;;;;24.65;14.68;;;;;;;;;;4997755;28;20046;-81
2022/05/19 12:34:00;;;;;;;23.75;20.55;;;;;;;;;;5001118;28;20049;-80
2022/05/19 12:36:32;;;;;;;29.65;23.55;;;;;;;;;;5004060;28;20050;-83
2022/05/19 12:39:30;;;;;;;26.33;23.45;;;;;;;;;;5000830;28;20402;-80
2022/05/19 12:42:01;;;;;;;26.33;22.23;;;;;;;;;;4989528;28;20430;-84
2022/05/19 12:44:39;;;;;;;23.25;17.30;;;;;;;;;;4999957;28;20039;-79
2022/05/19 12:47:08;;;;;;;22.42;13.15;;;;;;;;;;5003697;28;20050;-81
2022/05/19 12:49:36;;;;;;;19.17;11.93;;;;;;;;;;4995652;28;20042;-81
2022/05/19 12:52:25;;;;;;;13.98;10.23;;;;;;;;;;5007779;28;20057;-81
2022/05/19 12:54:53;;;;;;;21.90;12.25;;;;;;;;;;5000977;28;20050;-81
2022/05/19 12:57:26;;;;;;;19.60;11.88;;;;;;;;;;5002278;28;20050;-80
2022/05/19 12:59:56;;;;;;;18.08;11.90;;;;;;;;;;5002738;28;20486;-81
2022/05/19 13:02:45;;;;;;;17.23;11.68;;;;;;;;;;4993541;28;20042;-81
2022/05/19 13:05:20;;;;;;;21.92;11.23;;;;;;;;;;4993538;28;20045;-81
2022/05/19 13:07:49;;;;;;;12.57;8.35;;;;;;;;;;4984053;28;20045;-81
2022/05/19 13:10:19;;;;;;;14.82;8.05;;;;;;;;;;5000986;28;20495;-81
2022/05/19 13:12:49;;;;;;;14.27;7.05;;;;;;;;;;4998648;28;20091;-81
2022/05/19 13:15:26;;;;;;;12.65;6.97;;;;;;;;;;4987469;28;20062;-81
2022/05/19 13:17:53;;;;;;;12.95;5.57;;;;;;;;;;5027387;28;20057;-81
2022/05/19 13:20:30;;;;;;;11.30;4.85;;;;;;;;;;4997249;28;20123;-82
2022/05/19 13:23:00;;;;;;;8.15;4.10;;;;;;;;;;4994484;28;20049;-81
2022/05/19 13:25:27;;;;;;;8.45;4.20;;;;;;;;;;4994757;28;20161;-81
2022/05/19 13:30:55;;;;;;;6.75;4.40;;;;;;;;;;4997084;28;20092;-81
2022/05/19 13:33:23;;;;;;;7.88;3.90;;;;;;;;;;5000888;28;20133;-82
2022/05/19 13:35:58;;;;;;;8.57;3.65;;;;;;;;;;4996981;28;20081;-81
2022/05/19 13:38:24;;;;;;;7.57;3.80;;;;;;;;;;4999296;28;20093;-81
2022/05/19 13:40:51;;;;;;;9.23;4.22;;;;;;;;;;5003967;28;20490;-81
2022/05/19 13:43:22;;;;;;;8.95;4.35;;;;;;;;;;4990088;28;20050;-80
2022/05/19 13:45:53;;;;;;;8.48;4.68;;;;;;;;;;4990903;28;20050;-81
2022/05/19 13:48:38;;;;;;;7.20;4.35;;;;;;;;;;4985527;28;20103;-82
2022/05/19 13:51:11;;;;;;;7.55;4.30;;;;;;;;;;4987776;28;20046;-82
2022/05/19 13:53:41;;;;;;;6.43;4.57;;;;;;;;;;4993941;28;20106;-81
2022/05/19 13:56:07;;;;;;;9.10;5.05;;;;;;;;;;4999113;28;20135;-81
2022/05/19 13:58:33;;;;;;;8.27;5.30;;;;;;;;;;4980091;28;20514;-81
2022/05/19 14:01:00;;;;;;;8.55;6.93;;;;;;;;;;4989079;28;20049;-82
2022/05/19 14:03:27;;;;;;;8.40;5.50;;;;;;;;;;4999739;28;20901;-81
2022/05/19 14:05:55;;;;;;;7.68;6.55;;;;;;;;;;4990077;28;20081;-81
2022/05/19 14:08:22;;;;;;;9.55;8.65;;;;;;;;;;4991557;28;20446;-81
2022/05/19 14:10:55;;;;;;;11.13;10.13;;;;;;;;;;5007903;28;20120;-81
2022/05/19 14:13:23;;;;;;;11.75;10.55;;;;;;;;;;5001983;28;20042;-82
2022/05/19 14:15:56;;;;;;;14.52;13.23;;;;;;;;;;4998186;28;20081;-81
2022/05/19 14:18:24;;;;;;;18.90;17.13;;;;;;;;;;4998646;28;20058;-82
2022/05/19 14:20:52;;;;;;;21.17;19.35;;;;;;;;;;4970525;28;20104;-82
2022/05/19 14:23:21;;;;;;;16.08;14.57;;;;;;;;;;4980832;28;20073;-82
2022/05/19 14:25:49;;;;;;;13.15;11.85;;;;;;;;;;5003742;28;20057;-82
2022/05/19 14:28:26;;;;;;;11.07;9.88;;;;;;;;;;4997657;28;20050;-82
2022/05/19 14:30:55;;;;;;;10.57;9.57;;;;;;;;;;4994028;28;20053;-82
2022/05/19 14:33:25;;;;;;;9.95;9.02;;;;;;;;;;4997080;28;20450;-82
2022/05/19 14:36:00;;;;;;;9.95;8.75;;;;;;;;;;4993886;28;20092;-82
2022/05/19 14:38:36;;;;;;;9.60;8.07;;;;;;;;;;4996918;28;20051;-82
2022/05/19 14:43:51;;;;;;;7.07;6.40;;;;;;;;;;4996760;28;20104;-82
2022/05/19 14:46:19;;;;;;;7.28;6.30;;;;;;;;;;4993850;28;20046;-82
2022/05/19 14:48:49;;;;;;;5.90;5.30;;;;;;;;;;4995491;28;20104;-83
2022/05/19 14:51:22;;;;;;;6.53;5.38;;;;;;;;;;4991706;28;20059;-82
2022/05/19 14:53:48;;;;;;;;;;;;;;;;;;4994272;28;20046;-82
2022/05/19 14:56:15;;;;;;;5.78;5.20;;;;;;;;;;5027874;28;20396;-83
2022/05/19 14:59:00;;;;;;;5.78;5.20;;;;;;;;;;4990102;28;20046;-83
2022/05/19 15:01:26;;;;;;;5.47;4.82;;;;;;;;;;4983093;28;20173;-83
2022/05/19 15:03:52;;;;;;;6.22;5.00;;;;;;;;;;4991470;28;20054;-83